• Join FlightAware (Why Join?)
  • Login
  • US Flag 
04:33AM EDT


 

Airport Tracker/Info


-or-


 

Live Flight TrackerFlight Track Log ✈ AWE2740 ✈ 24-Apr-2013 ✈ KCLT - KMHT

Flight Track Log - Related Links

Times and Time Zones

All times are in EDT time to prevent confusion due to time zone crossing. See the AWE2740 flight status page for this flight to view local times or setup timezone preferences in your user account.

Time Position Orientation Groundspeed Altitude Reporting Facility
EDT Latitude Longitude Course Direction KTS MPH feet Rate Location/Type
08:18PM 35.1886 -80.9358 72° East 173 199 1,700  Level Atlanta Center
08:19PM 35.1611 -80.9292 169° South 196 226 2,800 1,680 Climbing FAA TRACON SMA TRACON (SMA)
08:19PM 35.1400 -80.9142 150° Southeast 250 288 3,200 1,620 Climbing FAA TRACON SMA TRACON (SMA)
08:20PM 35.1233 -80.8953 137° Southeast 270 311 3,900 2,100 Climbing FAA TRACON SMA TRACON (SMA)
08:20PM 35.1064 -80.8758 137° Southeast 276 318 4,600 2,520 Climbing FAA TRACON SMA TRACON (SMA)
08:20PM 35.0939 -80.8414 114° Southeast 306 352 5,600 2,700 Climbing FAA TRACON SMA TRACON (SMA)
08:21PM 35.1895 -80.5737 29° Northeast  Level FlightAware Approximate
08:21PM 35.0956 -80.8094 86° East 303 349 6,400  Level FAA TRACON SMA TRACON (SMA)
08:21PM 35.0983 -80.7772 84° East 311 358 7,300 2,520 Climbing FAA TRACON SMA TRACON (SMA)
08:21PM 35.1025 -80.7367 83° East 315 362 8,100 2,400 Climbing FAA TRACON SMA TRACON (SMA)
08:22PM 35.3102 -80.4879 30° Northeast  Level FlightAware Approximate
08:22PM 35.1094 -80.7050 75° East 325 374 8,900  Level FAA TRACON SMA TRACON (SMA)
08:22PM 35.1247 -80.6775 56° Northeast 328 377 9,600 2,220 Climbing FAA TRACON SMA TRACON (SMA)
08:22PM 35.1450 -80.6431 54° Northeast 335 386 10,400 1,920 Climbing FAA TRACON SMA TRACON (SMA)
08:23PM 35.3647 -80.3479 72° East  Level FlightAware Approximate
08:23PM 35.1619 -80.6147 54° Northeast 341 392 10,900  Level FAA TRACON SMA TRACON (SMA)
08:23PM 35.1844 -80.5767 54° Northeast 367 422 11,500 1,920 Climbing FAA TRACON SMA TRACON (SMA)
08:23PM 35.2025 -80.5458 54° Northeast 364 419 12,200 1,800 Climbing FAA TRACON SMA TRACON (SMA)
08:24PM 35.4075 -80.1850 72° East  Level FlightAware Approximate
08:24PM 35.2214 -80.5139 54° Northeast 371 427 12,700  Level FAA TRACON SMA TRACON (SMA)
08:24PM 35.2453 -80.4731 54° Northeast 379 436 13,500 2,100 Climbing FAA TRACON SMA TRACON (SMA)
08:24PM 35.2650 -80.4403 54° Northeast 387 445 14,100 1,920 Climbing FAA TRACON SMA TRACON (SMA)
08:25PM 35.2844 -80.4064 55° Northeast 392 451 14,800 2,400 Climbing FAA TRACON SMA TRACON (SMA)
08:25PM 35.3100 -80.3639 54° Northeast 399 459 15,700 2,520 Climbing FAA TRACON SMA TRACON (SMA)
08:25PM 35.3297 -80.3297 55° Northeast 400 460 16,500 2,220 Climbing FAA TRACON SMA TRACON (SMA)
08:26PM 35.3489 -80.2953 56° Northeast 399 459 17,200 2,160 Climbing FAA TRACON SMA TRACON (SMA)
08:26PM 35.3750 -80.2531 53° Northeast 402 463 18,000 1,920 Climbing FAA TRACON SMA TRACON (SMA)
08:26PM 35.3947 -80.2189 55° Northeast 401 461 18,500 1,680 Climbing FAA TRACON SMA TRACON (SMA)
08:27PM 35.4158 -80.1844 53° Northeast 407 468 19,100 1,800 Climbing FAA TRACON SMA TRACON (SMA)
08:27PM 35.4322 -80.1456 63° Northeast 415 478 19,700 1,800 Climbing FAA TRACON SMA TRACON (SMA)
08:27PM 35.4464 -80.0936 71° East 457 526 20,300 1,500 Climbing FAA TRACON SMA TRACON (SMA)
08:28PM 35.4564 -80.0544 73° East 424 488 20,700 2,100 Climbing FAA TRACON SMA TRACON (SMA)
08:28PM 35.4722 -79.9983 71° East 425 489 21,700 1,920 Climbing FAA TRACON SMA TRACON (SMA)
08:28PM 35.4822 -79.9553 74° East 426 490 22,000 1,020 Climbing FAA TRACON SMA TRACON (SMA)
08:29PM 35.4917 -79.9153 74° East 428 493 22,400 1,620 Climbing FAA TRACON SMA TRACON (SMA)
08:29PM 35.5072 -79.8575 72° East 434 499 23,100 1,020 Climbing FAA TRACON SMA TRACON (SMA)
08:29PM 35.5100 -79.8464 73° East 435 501 23,100 1,080 Level FAA TRACON SMA TRACON (SMA)
08:30PM 35.5408 -79.7017 75° East 433 498 24,400 1,500 Climbing Washington Center
08:31PM 35.5608 -79.5444 81° East 447 514 26,000 1,320 Climbing Washington Center
08:32PM 35.6197 -79.4042 63° Northeast 452 520 27,100 1,200 Climbing Washington Center
08:33PM 35.6783 -79.2639 63° Northeast 457 526 28,400 900 Climbing Washington Center
08:34PM 35.7411 -79.1158 62° Northeast 462 532 29,000 300 Climbing Washington Center
08:35PM 35.8064 -78.9522 64° Northeast 472 543 29,000  Level Washington Center
08:36PM 35.8689 -78.8011 63° Northeast 477 549 29,000  Level Washington Center
08:37PM 35.9375 -78.6578 59° Northeast 482 555 29,000  Level Washington Center
08:38PM 36.0078 -78.5139 59° Northeast 482 555 29,000  Level Washington Center
08:39PM 36.0758 -78.3728 59° Northeast 482 555 29,000  Level Washington Center
08:40PM 36.1436 -78.2336 59° Northeast 477 549 29,000  Level Washington Center
08:41PM 36.2092 -78.0942 60° Northeast 477 549 29,000  Level Washington Center
08:42PM 36.2767 -77.9519 59° Northeast 472 543 29,000  Level Washington Center
08:43PM 36.3419 -77.8122 60° Northeast 472 543 29,000  Level Washington Center
08:44PM 36.4092 -77.6694 60° Northeast 472 543 29,000  Level Washington Center
08:45PM 36.4722 -77.5292 61° Northeast 467 537 29,000  Level Washington Center
08:46PM 36.5392 -77.3861 60° Northeast 467 537 29,000  Level Washington Center
08:47PM 36.6078 -77.2403 60° Northeast 477 549 29,000  Level Washington Center
08:48PM 36.6744 -77.0967 60° Northeast 477 549 29,000  Level Washington Center
08:49PM 36.7575 -76.9686 51° Northeast 477 549 29,000  Level Washington Center
08:50PM 36.8647 -76.8744 35° Northeast 462 532 29,000  Level Washington Center
08:51PM 36.9700 -76.7772 36° Northeast 462 532 29,000  Level Washington Center
08:52PM 37.0775 -76.6828 35° Northeast 462 532 29,000  Level Washington Center
08:53PM 37.1719 -76.5953 36° Northeast 462 532 29,000  Level Washington Center
08:54PM 37.2792 -76.5003 35° Northeast 462 532 29,000  Level Washington Center
08:55PM 37.3842 -76.4047 36° Northeast 462 532 29,000  Level Washington Center
08:56PM 37.4892 -76.3064 37° Northeast 462 532 29,000  Level Washington Center
08:57PM 37.5939 -76.2131 35° Northeast 462 532 29,000  Level Washington Center
08:58PM 37.7047 -76.1167 35° Northeast 462 532 29,000  Level Washington Center
08:59PM 37.8053 -76.0175 38° Northeast 462 532 29,000  Level Washington Center
09:00PM 37.9100 -75.9181 37° Northeast 462 532 29,000  Level Washington Center
09:01PM 38.0144 -75.8211 36° Northeast 468 539 29,000  Level Washington Center
09:02PM 38.1208 -75.7211 36° Northeast 468 539 29,000  Level Washington Center
09:03PM 38.2397 -75.6075 37° Northeast 474 545 29,000  Level Washington Center
09:04PM 38.3358 -75.5203 35° Northeast 474 545 29,000  Level Washington Center
09:05PM 38.4567 -75.4644 20° North 467 537 29,000  Level Washington Center
09:06PM 38.5817 -75.4164 17° North 460 529 29,000  Level Washington Center
09:07PM 38.7047 -75.3656 18° North 460 529 29,000  Level Washington Center
09:08PM 38.8275 -75.3119 19° North 460 529 29,000  Level Washington Center
09:09PM 38.9503 -75.2581 19° North 460 529 29,000  Level Washington Center
09:10PM 39.0753 -75.2092 17° North 460 529 29,000  Level Washington Center
09:11PM 39.1981 -75.1550 19° North 460 529 29,000  Level Washington Center
09:12PM 39.3167 -75.0953 21° North 460 529 29,000  Level Washington Center
09:13PM 39.4225 -74.9925 37° Northeast 460 529 29,000  Level Washington Center
09:14PM 39.5281 -74.8894 37° Northeast 471 542 29,000  Level Washington Center
09:15PM 39.6433 -74.7769 37° Northeast 478 550 29,000  Level New York Center
09:16PM 39.7597 -74.6594 38° Northeast 478 550 29,000  Level New York Center
09:17PM 39.8544 -74.5675 37° Northeast 478 550 29,000  Level New York Center
09:18PM 39.9622 -74.4542 39° Northeast 483 556 29,000  Level New York Center
09:19PM 40.0678 -74.3483 37° Northeast 478 550 29,000  Level New York Center
09:20PM 40.1731 -74.2425 38° Northeast 484 557 29,000 -60 Level New York Center
09:21PM 40.2861 -74.1503 32° Northeast 479 551 28,900  Descending New York Center
09:22PM 40.4050 -74.0744 26° Northeast 479 551 29,000  Climbing New York Center
09:23PM 40.5281 -73.9983 25° Northeast 479 551 29,000  Level New York Center
09:25PM 40.7219 -73.8778 25° Northeast 483 556 29,000  Level Boston Center
09:26PM 40.8439 -73.8008 26° Northeast 483 556 29,000 -60 Level Boston Center
09:27PM 40.9731 -73.7900 North 471 542 28,900  Descending Boston Center
09:28PM 41.1044 -73.7953 358° North 464 534 29,000 -540 Climbing Boston Center
09:30PM 41.3667 -73.8092 358° North 464 534 27,300 -1,020 Descending Boston Center
09:31PM 41.4958 -73.8147 358° North 464 534 26,000 -1,260 Descending Boston Center
09:32PM 41.6250 -73.8203 358° North 459 528 24,800 -1,200 Descending Boston Center
09:33PM 41.7386 -73.7394 28° Northeast 436 502 23,700 -900 Descending Boston Center
09:34PM 41.8317 -73.6075 47° Northeast 429 494 23,000 -360 Descending Boston Center
09:35PM 41.9225 -73.4781 47° Northeast 443 510 23,000  Level Boston Center
09:36PM 42.0153 -73.3567 44° Northeast 456 525 23,000  Level Boston Center
09:37PM 42.1269 -73.2069 45° Northeast 461 531 23,000 -480 Level Boston Center
09:38PM 42.2153 -73.0847 46° Northeast 461 531 22,000 -1,200 Descending Boston Center
09:39PM 42.2992 -72.9706 45° Northeast 466 536 20,600 -1,500 Descending Boston Center
09:40PM 42.3933 -72.8419 45° Northeast 466 536 19,100 -840 Descending Boston Center
09:41PM 42.4833 -72.7189 45° Northeast 438 504 19,000 -120 Descending Boston Center
09:42PM 42.5544 -72.6036 50° Northeast 433 498 18,900 -1,200 Descending Boston Center
09:43PM 42.6089 -72.4656 62° Northeast 428 493 16,700 -2,100 Descending Boston Center
09:44PM 42.6631 -72.3272 62° Northeast 409 471 14,700 -2,040 Descending Boston Center
09:45PM 42.7169 -72.1886 62° Northeast 383 441 12,700 -1,800 Descending Boston Center
09:46PM 42.7603 -72.0808 61° Northeast 369 425 11,100 -1,740 Descending Boston Center
09:47PM 42.8183 -71.9675 55° Northeast 342 394 9,300 -1,800 Descending Boston Center
09:48PM 42.8742 -71.8906 45° Northeast 321 369 7,600 -1,800 Descending Boston Center
09:49PM 42.9425 -71.7906 47° Northeast 316 364 5,800 -1,560 Descending Boston Center
09:50PM 42.9878 -71.7050 54° Northeast 316 364 4,500 -1,380 Descending Boston Center
09:51PM 43.0289 -71.5994 62° Northeast 299 344 3,100 -1,080 Descending Boston Center
09:52PM 43.0344 -71.5169 85° East 232 267 2,400 -720 Descending Boston Center